Time;durP1;ratioP1;P1;durP2;ratioP2;P2;SDS_P1;SDS_P2;PMS_P1;PMS_P2;Temp;Humidity;BMP_temperature;BMP_pressure;BME280_temperature;BME280_humidity;BME280_pressure;Samples;Min_cycle;Max_cycle;Signal;HPM_P1;HPM_P2
2022/06/25 00:01:29;;;;;;;4.95;4.45;;;;;;;18.33;65.90;99017.34;1783572;80;20863;-68
2022/06/25 00:03:56;;;;;;;4.45;4.05;;;;;;;18.29;66.03;99018.05;1776656;80;21300;-69
2022/06/25 00:06:23;;;;;;;4.85;4.03;;;;;;;18.28;66.27;99016.39;1770379;80;21012;-66
2022/06/25 00:08:50;;;;;;;4.50;4.10;;;;;;;18.27;66.32;99018.80;1761719;80;20937;-69
2022/06/25 00:14:07;;;;;;;4.85;4.37;;;;;;;18.22;66.60;99023.55;1771484;80;20891;-67
2022/06/25 00:16:34;;;;;;;4.87;4.28;;;;;;;18.20;66.63;99024.27;1768644;79;21734;-67
2022/06/25 00:19:01;;;;;;;4.35;4.00;;;;;;;18.20;66.78;99023.45;1734319;81;20906;-68
2022/06/25 00:21:28;;;;;;;9.38;5.03;;;;;;;18.19;66.84;99019.13;1732677;81;20930;-70
2022/06/25 00:23:54;;;;;;;4.83;4.15;;;;;;;18.16;66.91;99019.06;1748639;81;21015;-67
2022/06/25 00:26:21;;;;;;;5.00;4.47;;;;;;;18.16;66.94;99019.06;1750403;81;20867;-70
2022/06/25 00:28:48;;;;;;;4.55;4.12;;;;;;;18.15;67.02;99014.72;1740440;81;21224;-69
2022/06/25 00:31:14;;;;;;;5.95;4.25;;;;;;;18.17;67.09;99011.81;1734369;80;20986;-67
2022/06/25 00:33:41;;;;;;;4.20;3.80;;;;;;;18.16;67.24;99006.95;1751833;81;20856;-66
2022/06/25 00:36:07;;;;;;;4.28;3.98;;;;;;;18.17;67.28;99013.95;1746500;79;20933;-69
2022/06/25 00:38:34;;;;;;;8.10;3.92;;;;;;;18.17;67.29;99009.92;1754646;81;20970;-67
2022/06/25 00:41:02;;;;;;;5.22;4.40;;;;;;;18.17;67.18;99013.95;1761461;81;21250;-68
2022/06/25 00:43:29;;;;;;;4.87;4.37;;;;;;;18.18;67.11;99006.71;1748397;81;20863;-69
2022/06/25 00:45:55;;;;;;;4.97;4.22;;;;;;;18.16;67.00;99005.61;1747103;81;20934;-66
2022/06/25 00:48:22;;;;;;;5.75;4.25;;;;;;;18.17;66.84;99007.23;1767217;81;20884;-66
2022/06/25 00:50:48;;;;;;;5.12;4.45;;;;;;;18.18;66.75;99003.50;1767758;81;20951;-69
2022/06/25 00:53:15;;;;;;;5.12;4.72;;;;;;;18.18;66.67;99006.19;1770679;81;21319;-66
2022/06/25 00:55:41;;;;;;;5.83;4.47;;;;;;;18.17;66.66;99001.84;1738278;81;20883;-68
2022/06/25 00:58:11;;;;;;;4.25;3.92;;;;;;;18.17;66.60;99005.88;1734707;81;20875;-69
2022/06/25 01:00:39;;;;;;;4.97;4.12;;;;;;;18.15;66.60;99007.99;1760675;81;20912;-67
2022/06/25 01:03:06;;;;;;;6.12;3.87;;;;;;;18.13;66.64;99018.70;1759878;81;21477;-69
2022/06/25 01:05:32;;;;;;;3.98;3.58;;;;;;;18.12;66.62;99013.83;1757498;81;21156;-66
2022/06/25 01:08:00;;;;;;;3.85;3.55;;;;;;;18.14;66.51;99019.83;1732248;81;20840;-69
2022/06/25 01:10:26;;;;;;;4.12;3.72;;;;;;;18.15;66.44;99014.72;1758852;81;20981;-68
2022/06/25 01:12:54;;;;;;;3.87;3.47;;;;;;;18.16;66.33;99016.38;1732934;81;20906;-68
2022/06/25 01:15:20;;;;;;;3.80;3.42;;;;;;;18.15;66.19;99016.06;1750824;80;21029;-66
2022/06/25 01:17:50;;;;;;;3.55;3.25;;;;;;;18.15;66.06;99022.80;1792855;80;21241;-67
2022/06/25 01:20:20;;;;;;;4.37;3.98;;;;;;;18.14;66.03;99021.17;1768226;80;20929;-69
2022/06/25 01:22:47;;;;;;;4.03;3.40;;;;;;;18.14;66.00;99026.56;1761578;80;21487;-70
2022/06/25 01:25:19;;;;;;;3.67;3.37;;;;;;;18.15;65.89;99026.01;1767563;80;21016;-69
2022/06/25 01:27:44;;;;;;;4.17;3.55;;;;;;;18.14;65.84;99031.94;1761273;80;21016;-69
2022/06/25 01:30:12;;;;;;;4.60;3.50;;;;;;;18.14;65.74;99035.98;1761628;80;21213;-67
2022/06/25 01:32:39;;;;;;;3.98;3.62;;;;;;;18.14;65.65;99032.47;1761611;80;20843;-68
2022/06/25 01:35:09;;;;;;;4.00;3.60;;;;;;;18.14;65.51;99032.47;1775804;80;20925;-68
2022/06/25 01:37:36;;;;;;;4.00;3.70;;;;;;;18.14;65.42;99038.67;1775723;80;21306;-67
2022/06/25 01:40:04;;;;;;;3.62;3.33;;;;;;;18.13;65.32;99035.67;1783187;80;20964;-67
2022/06/25 01:45:16;;;;;;;3.83;3.52;;;;;;;18.11;65.24;99042.34;1777975;80;20988;-66
2022/06/25 01:47:42;;;;;;;3.77;3.47;;;;;;;18.09;65.12;99038.55;1761552;80;20921;-67
2022/06/25 01:50:10;;;;;;;5.28;3.65;;;;;;;18.08;65.10;99038.75;1761565;80;20882;-67
2022/06/25 01:52:37;;;;;;;4.47;4.00;;;;;;;18.06;65.19;99044.89;1779986;80;21493;-70
2022/06/25 01:55:06;;;;;;;3.92;3.62;;;;;;;18.02;65.48;99045.04;1789579;79;21240;-68
2022/06/25 01:57:34;;;;;;;4.03;3.37;;;;;;;17.97;65.67;99043.04;1776474;80;20894;-68
2022/06/25 02:00:00;;;;;;;9.08;3.35;;;;;;;17.91;65.75;99043.94;1783811;80;20907;-67
2022/06/25 02:02:28;;;;;;;2.92;2.72;;;;;;;17.88;65.81;99048.45;1761590;80;20921;-68
2022/06/25 02:04:55;;;;;;;3.33;3.12;;;;;;;17.87;65.75;99054.88;1779924;78;20912;-69
2022/06/25 02:07:21;;;;;;;3.80;3.40;;;;;;;17.88;65.58;99050.59;1792983;80;21248;-68
2022/06/25 02:09:48;;;;;;;3.15;2.95;;;;;;;17.89;65.33;99051.42;1788367;79;21021;-68
2022/06/25 02:12:15;;;;;;;3.65;3.40;;;;;;;17.91;65.16;99055.25;1784599;80;20996;-66
2022/06/25 02:14:41;;;;;;;3.95;3.30;;;;;;;17.94;65.00;99062.87;1778380;80;20978;-66
2022/06/25 02:17:08;;;;;;;3.72;3.00;;;;;;;17.94;64.85;99065.02;1747868;80;20914;-67
2022/06/25 02:19:34;;;;;;;3.20;2.95;;;;;;;17.95;64.74;99065.33;1775304;80;21244;-68
2022/06/25 02:22:04;;;;;;;3.20;2.90;;;;;;;17.96;64.61;99072.36;1762055;80;21539;-69
2022/06/25 02:24:31;;;;;;;3.33;3.08;;;;;;;17.98;64.41;99072.95;1768089;80;21393;-66
2022/06/25 02:26:58;;;;;;;3.95;3.65;;;;;;;18.00;64.39;99071.36;1789861;79;21433;-66
2022/06/25 02:29:25;;;;;;;3.35;3.12;;;;;;;18.00;64.38;99072.19;1769571;80;21437;-65
2022/06/25 02:31:51;;;;;;;4.92;3.50;;;;;;;17.99;64.42;99071.09;1776681;80;21143;-69
2022/06/25 02:34:19;;;;;;;3.30;3.10;;;;;;;17.97;64.50;99065.09;1762818;80;21450;-66
2022/06/25 02:36:46;;;;;;;3.58;3.27;;;;;;;17.96;64.58;99066.16;1770576;80;21528;-67
2022/06/25 02:39:13;;;;;;;4.42;3.52;;;;;;;17.94;64.63;99071.75;1790058;78;21591;-68
2022/06/25 02:41:39;;;;;;;3.98;3.20;;;;;;;17.94;64.71;99070.40;1777904;80;21381;-66
2022/06/25 02:44:07;;;;;;;3.77;3.00;;;;;;;17.95;64.76;99073.40;1759266;80;21228;-66
2022/06/25 02:46:38;;;;;;;3.50;3.20;;;;;;;17.98;64.84;99069.44;1775598;80;20914;-67
2022/06/25 02:49:05;;;;;;;4.45;3.12;;;;;;;18.00;64.85;99072.19;1775421;80;20974;-69
2022/06/25 02:51:32;;;;;;;4.47;3.50;;;;;;;18.02;65.12;99071.44;1781975;80;21040;-67
2022/06/25 02:53:59;;;;;;;4.85;4.05;;;;;;;18.05;65.44;99070.98;1773281;80;20875;-68
2022/06/25 02:59:11;;;;;;;4.35;3.50;;;;;;;18.14;65.78;99066.11;1759312;80;21435;-68
2022/06/25 03:01:39;;;;;;;4.40;3.40;;;;;;;18.22;65.59;99061.75;1776537;80;20889;-66
2022/06/25 03:04:06;;;;;;;3.52;2.92;;;;;;;18.30;65.76;99068.95;1759120;80;20976;-66
2022/06/25 03:06:33;;;;;;;3.80;3.50;;;;;;;18.38;65.77;99068.63;1764682;80;20996;-68
2022/06/25 03:09:00;;;;;;;3.67;3.12;;;;;;;18.48;65.87;99072.96;1763245;80;22038;-66
2022/06/25 03:11:27;;;;;;;5.70;3.33;;;;;;;18.56;65.99;99071.83;1763542;80;21478;-66
2022/06/25 03:13:54;;;;;;;7.60;3.95;;;;;;;18.64;65.94;99074.16;1781240;80;20937;-67
2022/06/25 03:16:22;;;;;;;12.13;4.12;;;;;;;18.71;65.75;99062.78;1745516;80;21453;-67
2022/06/25 03:18:51;;;;;;;5.67;4.50;;;;;;;18.81;65.38;99068.41;1762718;81;20993;-68
2022/06/25 03:21:35;;;;;;;6.72;4.08;;;;;;;18.91;65.13;99063.78;1739342;81;21277;-69
2022/06/25 03:24:05;;;;;;;5.90;3.40;;;;;;;19.05;65.05;99057.94;1761539;81;20990;-69
2022/06/25 03:26:32;;;;;;;4.58;3.12;;;;;;;19.22;64.80;99062.59;1732376;81;20907;-68
2022/06/25 03:28:59;;;;;;;4.75;3.42;;;;;;;19.41;64.38;99062.27;1751633;81;20946;-67
2022/06/25 03:31:26;;;;;;;6.80;3.87;;;;;;;19.61;63.98;99063.21;1757509;80;21013;-70
2022/06/25 03:33:53;;;;;;;7.12;3.70;;;;;;;19.81;63.53;99059.61;1772055;81;23052;-68
2022/06/25 03:36:22;;;;;;;4.87;3.95;;;;;;;20.04;63.05;99054.64;1743882;80;20876;-67
2022/06/25 03:38:48;;;;;;;8.73;4.08;;;;;;;20.29;62.52;99057.83;1765675;81;20927;-66
2022/06/25 03:41:33;;;;;;;5.00;3.30;;;;;;;20.56;61.72;99061.56;1763887;81;21324;-68
2022/06/25 03:44:18;;;;;;;7.47;3.42;;;;;;;20.92;60.91;99059.72;1732445;81;20982;-68
2022/06/25 03:46:45;;;;;;;4.83;3.02;;;;;;;21.65;58.89;99054.55;1760449;81;21304;-66
2022/06/25 03:49:11;;;;;;;7.05;3.22;;;;;;;22.36;56.93;99051.30;1758181;81;20950;-68
2022/06/25 03:51:49;;;;;;;3.95;3.15;;;;;;;23.08;55.05;99044.86;1744467;80;20967;-68
2022/06/25 03:54:16;;;;;;;6.45;3.72;;;;;;;23.77;52.99;99045.55;1750409;81;20989;-66
2022/06/25 03:56:44;;;;;;;4.67;3.30;;;;;;;24.40;51.36;99050.61;1732314;81;20981;-68
2022/06/25 03:59:11;;;;;;;8.05;3.52;;;;;;;25.70;48.25;99051.61;1750450;81;21233;-70
2022/06/25 04:01:38;;;;;;;4.37;3.00;;;;;;;25.70;48.25;99051.61;1766106;81;20930;-70
2022/06/25 04:04:05;;;;;;;4.78;3.45;;;;;;;26.33;46.15;99045.83;1757296;81;21528;-68
2022/06/25 04:06:31;;;;;;;2.62;2.42;;;;;;;26.94;44.76;99048.94;1734963;81;20935;-67
2022/06/25 04:09:00;;;;;;;4.87;3.20;;;;;;;27.51;43.13;99045.92;1739637;81;20879;-69
2022/06/25 04:11:27;;;;;;;5.97;3.08;;;;;;;27.99;40.91;99050.80;1754177;81;21224;-68
2022/06/25 04:13:55;;;;;;;2.65;2.45;;;;;;;28.34;39.48;99050.89;1744317;81;20896;-67
2022/06/25 04:16:23;;;;;;;2.87;2.67;;;;;;;28.78;39.09;99051.88;1755829;81;20926;-68
2022/06/25 04:18:49;;;;;;;5.42;3.45;;;;;;;29.26;37.80;99049.94;1766156;81;20946;-70
2022/06/25 04:21:17;;;;;;;3.60;2.60;;;;;;;29.72;36.83;99052.58;1740321;81;20974;-68
2022/06/25 04:23:44;;;;;;;5.05;2.77;;;;;;;30.16;35.93;99053.34;1744488;81;21840;-69
2022/06/25 04:26:12;;;;;;;3.20;2.77;;;;;;;30.53;35.07;99049.50;1756967;81;20947;-68
2022/06/25 04:31:31;;;;;;;3.92;2.60;;;;;;;31.24;33.84;99051.83;1739243;81;20860;-69
2022/06/25 04:33:58;;;;;;;4.42;2.70;;;;;;;31.53;33.16;99050.23;1747748;81;20887;-68
2022/06/25 04:36:27;;;;;;;3.00;2.70;;;;;;;31.84;32.70;99047.97;1732522;81;21244;-70
2022/06/25 04:38:55;;;;;;;4.12;3.00;;;;;;;32.21;32.23;99050.19;1743195;81;20995;-68
2022/06/25 04:41:22;;;;;;;2.95;2.72;;;;;;;32.53;31.61;99055.83;1733910;81;21013;-67
2022/06/25 04:43:50;;;;;;;3.70;2.65;;;;;;;32.77;30.77;99051.42;1757054;81;20871;-67
2022/06/25 04:46:19;;;;;;;2.90;2.62;;;;;;;33.00;29.87;99052.05;1740039;80;20974;-69
2022/06/25 04:48:46;;;;;;;4.87;2.90;;;;;;;33.13;29.95;99057.16;1769171;81;22127;-69
2022/06/25 04:51:27;;;;;;;3.00;2.50;;;;;;;33.41;29.63;99061.11;1740729;81;20965;-67
2022/06/25 04:53:57;;;;;;;5.42;3.27;;;;;;;33.71;29.07;99063.38;1748542;81;21006;-69
2022/06/25 04:56:29;;;;;;;3.72;2.52;;;;;;;34.01;28.87;99060.84;1740241;79;20855;-69
2022/06/25 04:58:57;;;;;;;3.10;2.50;;;;;;;34.49;28.25;99057.05;1755000;81;20966;-66
2022/06/25 05:01:42;;;;;;;5.12;2.98;;;;;;;35.00;27.73;99057.16;1763886;81;21202;-68
2022/06/25 05:04:08;;;;;;;3.10;2.80;;;;;;;35.38;27.00;99064.44;1772361;81;20895;-69
2022/06/25 05:06:35;;;;;;;10.85;2.87;;;;;;;35.53;26.65;99066.52;1763746;79;21021;-66
2022/06/25 05:09:02;;;;;;;3.70;2.70;;;;;;;35.68;26.39;99068.06;1757290;81;20975;-69
2022/06/25 05:11:29;;;;;;;4.28;2.72;;;;;;;35.91;26.16;99065.63;1759508;79;20832;-67
2022/06/25 05:13:56;;;;;;;6.72;4.65;;;;;;;36.18;25.80;99066.91;1752120;81;21232;-65
2022/06/25 05:16:22;;;;;;;3.90;3.22;;;;;;;36.52;25.48;99066.40;1769273;80;20923;-70
2022/06/25 05:18:51;;;;;;;4.53;2.17;;;;;;;36.75;25.14;99069.42;1756539;81;21516;-68
2022/06/25 05:21:17;;;;;;;4.25;2.35;;;;;;;37.10;24.27;99076.00;1767973;81;20927;-64
2022/06/25 05:23:45;;;;;;;3.65;2.35;;;;;;;37.22;23.68;99078.70;1744967;81;20974;-65
2022/06/25 05:26:12;;;;;;;3.87;2.60;;;;;;;37.14;23.70;99082.44;1756352;81;21196;-65
2022/06/25 05:28:39;;;;;;;2.37;2.17;;;;;;;37.42;23.84;99081.02;1757145;81;20872;-65
2022/06/25 05:31:07;;;;;;;5.17;2.02;;;;;;;37.78;23.20;99080.75;1769659;81;21037;-70
2022/06/25 05:33:34;;;;;;;3.10;2.00;;;;;;;38.04;23.13;99085.17;1760140;79;21047;-67
2022/06/25 05:36:00;;;;;;;3.35;2.15;;;;;;;38.40;22.83;99086.84;1770389;80;20879;-65
2022/06/25 05:38:27;;;;;;;5.53;2.30;;;;;;;38.62;22.30;99089.47;1769970;81;21245;-65
2022/06/25 05:40:54;;;;;;;3.52;2.17;;;;;;;38.88;21.80;99088.27;1743169;81;21073;-68
2022/06/25 05:43:22;;;;;;;3.10;2.00;;;;;;;39.21;21.28;99087.76;1755850;79;20955;-70
2022/06/25 05:45:48;;;;;;;2.77;2.12;;;;;;;39.44;20.72;99083.02;1762167;81;21035;-67
2022/06/25 05:48:15;;;;;;;2.72;1.50;;;;;;;39.60;20.19;99081.49;1767888;81;22296;-70
2022/06/25 05:50:42;;;;;;;3.83;2.58;;;;;;;39.95;19.77;99090.44;1771373;81;21188;-66
2022/06/25 05:53:08;;;;;;;3.37;2.00;;;;;;;39.83;19.59;99083.70;1744894;81;20978;-68
2022/06/25 05:55:35;;;;;;;1.98;1.82;;;;;;;39.94;19.95;99088.27;1757406;81;20969;-68
2022/06/25 05:58:01;;;;;;;5.55;2.08;;;;;;;40.40;19.48;99084.78;1759462;81;21052;-69
2022/06/25 06:00:28;;;;;;;3.67;1.70;;;;;;;40.93;19.00;99090.30;1766504;79;21225;-72
2022/06/25 06:02:55;;;;;;;2.33;2.10;;;;;;;41.30;18.22;99083.33;1756744;81;21258;-68
2022/06/25 06:05:22;;;;;;;3.00;2.02;;;;;;;41.68;17.96;99085.10;1749470;81;21033;-65
2022/06/25 06:07:49;;;;;;;2.55;1.90;;;;;;;41.69;17.83;99080.33;1770193;81;21430;-67
2022/06/25 06:10:16;;;;;;;3.25;2.00;;;;;;;41.85;17.57;99087.84;1757563;79;21572;-66
2022/06/25 06:12:44;;;;;;;3.17;1.95;;;;;;;41.95;17.28;99085.75;1764615;79;20998;-67
2022/06/25 06:15:10;;;;;;;2.65;1.90;;;;;;;42.05;17.68;99089.21;1761102;81;21138;-71
2022/06/25 06:17:38;;;;;;;2.25;1.87;;;;;;;42.46;17.13;99087.08;1765374;80;21440;-69
2022/06/25 06:20:07;;;;;;;3.27;2.27;;;;;;;42.82;16.83;99088.06;1777811;80;21058;-68
2022/06/25 06:22:33;;;;;;;3.65;1.95;;;;;;;42.57;17.04;99084.38;1781339;80;21504;-69
2022/06/25 06:25:00;;;;;;;3.33;2.30;;;;;;;42.70;16.54;99083.64;1773589;79;21117;-67
2022/06/25 06:27:26;;;;;;;1.87;1.77;;;;;;;42.50;16.59;99087.11;1773480;80;21291;-70
2022/06/25 06:29:53;;;;;;;3.27;2.05;;;;;;;42.48;17.12;99076.30;1778332;78;21001;-65
2022/06/25 06:32:19;;;;;;;3.30;1.90;;;;;;;43.06;16.91;99080.39;1782678;79;21536;-69
2022/06/25 06:34:46;;;;;;;3.17;1.98;;;;;;;43.45;16.14;99077.68;1746107;80;21001;-70
2022/06/25 06:37:13;;;;;;;4.47;1.98;;;;;;;43.49;15.99;99086.28;1777587;78;21374;-67
2022/06/25 06:39:40;;;;;;;3.80;1.85;;;;;;;43.11;15.80;99089.79;1759678;80;21836;-67
2022/06/25 06:42:08;;;;;;;3.08;2.42;;;;;;;42.87;15.98;99082.89;1771837;80;20903;-68
2022/06/25 06:44:36;;;;;;;3.40;1.80;;;;;;;42.96;16.16;99085.36;1757861;80;21455;-68
2022/06/25 06:47:04;;;;;;;4.50;1.65;;;;;;;43.19;16.07;99090.02;1777142;80;21377;-66
2022/06/25 06:49:30;;;;;;;2.30;1.87;;;;;;;43.35;15.71;99091.88;1777248;80;21373;-67
2022/06/25 06:51:56;;;;;;;2.90;1.95;;;;;;;43.43;15.30;99094.08;1779711;80;21053;-67
2022/06/25 06:54:23;;;;;;;2.98;1.80;;;;;;;43.08;15.48;99098.16;1756751;80;20906;-68
2022/06/25 06:56:49;;;;;;;2.25;1.92;;;;;;;43.07;15.59;99095.19;1761934;80;20911;-69
2022/06/25 06:59:16;;;;;;;1.80;1.70;;;;;;;43.42;15.44;99098.88;1773143;80;21070;-67
2022/06/25 07:01:42;;;;;;;1.92;1.70;;;;;;;43.72;15.02;99097.73;1756684;80;20918;-67
2022/06/25 07:04:09;;;;;;;4.83;2.35;;;;;;;43.82;14.91;99098.33;1768809;80;21297;-65
2022/06/25 07:06:36;;;;;;;1.70;1.60;;;;;;;44.07;14.83;99094.89;1766207;79;21054;-67
2022/06/25 07:09:03;;;;;;;1.92;1.82;;;;;;;44.38;14.63;99091.25;1765862;80;20945;-68
2022/06/25 07:11:30;;;;;;;2.95;2.12;;;;;;;44.61;14.36;99102.05;1775547;80;21391;-67
2022/06/25 07:14:01;;;;;;;4.30;1.98;;;;;;;44.22;14.60;99103.53;1759177;80;20996;-70
2022/06/25 07:16:28;;;;;;;4.50;1.95;;;;;;;43.83;15.15;99101.34;1756728;80;21405;-68
2022/06/25 07:18:56;;;;;;;5.35;1.90;;;;;;;43.78;15.36;99102.52;1760611;80;21479;-67
2022/06/25 07:21:24;;;;;;;3.42;2.05;;;;;;;44.12;15.25;99102.33;1761731;80;20925;-68
2022/06/25 07:23:51;;;;;;;4.92;2.35;;;;;;;44.10;15.09;99101.94;1764379;80;20953;-70
2022/06/25 07:26:18;;;;;;;3.60;1.95;;;;;;;44.20;15.19;99105.31;1780579;79;21511;-70
2022/06/25 07:28:45;;;;;;;4.58;1.85;;;;;;;44.27;14.94;99098.91;1761443;80;21266;-70
2022/06/25 07:31:13;;;;;;;3.02;2.02;;;;;;;44.42;14.42;99104.67;1761479;80;20879;-67
2022/06/25 07:33:40;;;;;;;3.35;1.77;;;;;;;44.26;14.29;99097.30;1776763;80;20863;-70
2022/06/25 07:36:07;;;;;;;2.65;1.77;;;;;;;44.10;14.47;99112.34;1768033;80;20933;-68
2022/06/25 07:38:34;;;;;;;7.58;2.20;;;;;;;44.06;14.46;99101.72;1761504;80;21011;-68
2022/06/25 07:41:02;;;;;;;6.92;2.25;;;;;;;44.65;14.55;99107.02;1783484;80;21231;-67
2022/06/25 07:43:28;;;;;;;2.25;2.00;;;;;;;45.12;13.92;99108.44;1761446;80;21325;-67
2022/06/25 07:45:55;;;;;;;1.90;1.62;;;;;;;45.17;13.54;99111.61;1761491;80;20933;-69
2022/06/25 07:48:22;;;;;;;2.30;1.77;;;;;;;45.10;13.47;99110.86;1768912;80;20864;-69
2022/06/25 07:53:34;;;;;;;1.72;1.62;;;;;;;45.50;14.10;99115.83;1761692;80;21127;-67
2022/06/25 07:56:00;;;;;;;1.95;1.75;;;;;;;46.25;13.41;99112.64;1761369;80;20906;-66
2022/06/25 07:58:28;;;;;;;3.10;2.12;;;;;;;46.43;12.73;99109.66;1789658;80;20954;-67
2022/06/25 08:00:54;;;;;;;9.05;2.25;;;;;;;46.20;13.02;99106.67;1777225;80;20957;-67
2022/06/25 08:03:21;;;;;;;4.03;1.50;;;;;;;46.14;12.90;99108.33;1768371;78;20913;-69
2022/06/25 08:05:48;;;;;;;6.08;1.67;;;;;;;46.35;12.98;99111.73;1801120;78;21304;-69
2022/06/25 08:08:14;;;;;;;2.83;1.22;;;;;;;46.63;12.35;99113.44;1783414;80;20879;-70
2022/06/25 08:10:43;;;;;;;6.60;1.60;;;;;;;45.82;12.00;99111.41;1771904;80;20856;-67
2022/06/25 08:13:09;;;;;;;5.42;1.90;;;;;;;45.41;12.04;99106.28;1773014;80;20889;-69
2022/06/25 08:15:36;;;;;;;1.70;1.60;;;;;;;45.34;12.56;99105.73;1769090;80;20919;-66
2022/06/25 08:18:03;;;;;;;5.65;1.70;;;;;;;45.48;12.79;99101.41;1786654;80;21207;-69
2022/06/25 08:20:29;;;;;;;2.37;1.80;;;;;;;45.51;13.16;99100.59;1744447;79;20967;-70
2022/06/25 08:22:57;;;;;;;2.25;1.92;;;;;;;45.09;13.49;99105.84;1773862;81;21033;-70
2022/06/25 08:25:23;;;;;;;1.60;1.50;;;;;;;43.21;14.58;99110.59;1744632;79;20871;-68
2022/06/25 08:27:51;;;;;;;1.65;1.35;;;;;;;42.82;15.04;99107.64;1758084;79;20938;-69
2022/06/25 08:30:18;;;;;;;4.92;1.40;;;;;;;42.94;14.67;99118.53;1732400;81;21233;-68
2022/06/25 08:32:45;;;;;;;3.08;1.20;;;;;;;42.13;14.52;99109.06;1745221;81;20978;-69
2022/06/25 08:35:12;;;;;;;2.02;1.22;;;;;;;40.54;15.88;99112.08;1732277;81;20886;-68
2022/06/25 08:37:39;;;;;;;1.80;1.15;;;;;;;39.94;16.65;99104.98;1732991;81;20955;-68
2022/06/25 08:40:08;;;;;;;3.87;1.22;;;;;;;40.51;16.57;99101.69;1759940;81;20974;-67
2022/06/25 08:42:35;;;;;;;5.70;1.77;;;;;;;40.90;16.27;99104.41;1732285;81;21792;-68
2022/06/25 08:45:02;;;;;;;1.60;1.50;;;;;;;41.10;16.42;99102.23;1732229;81;20910;-69
2022/06/25 08:47:28;;;;;;;2.95;1.72;;;;;;;41.93;15.71;99097.88;1732273;81;20934;-69
2022/06/25 08:49:55;;;;;;;4.17;1.30;;;;;;;42.96;14.85;99108.55;1732224;81;20946;-65
2022/06/25 08:52:21;;;;;;;1.50;1.40;;;;;;;43.45;14.16;99109.87;1732423;81;20875;-68
2022/06/25 08:54:48;;;;;;;1.60;1.40;;;;;;;42.64;14.62;99116.55;1732334;81;21148;-66
2022/06/25 08:57:15;;;;;;;2.55;1.75;;;;;;;42.11;15.55;99105.80;1732188;81;20982;-67
2022/06/25 08:59:42;;;;;;;3.02;2.83;;;;;;;42.73;15.45;99115.61;1732414;81;20915;-66
2022/06/25 09:02:08;;;;;;;2.87;1.40;;;;;;;44.03;14.27;99101.92;1764773;81;20972;-69
2022/06/25 09:04:35;;;;;;;2.05;1.50;;;;;;;44.69;13.76;99102.99;1748687;79;20991;-68
2022/06/25 09:07:19;;;;;;;1.40;1.30;;;;;;;44.59;13.60;99101.63;1732465;81;21237;-69
2022/06/25 09:09:47;;;;;;;3.02;1.30;;;;;;;44.31;13.64;99105.30;1732159;81;20891;-67
2022/06/25 09:12:14;;;;;;;1.62;1.40;;;;;;;44.03;14.24;99103.92;1732274;81;20973;-67
2022/06/25 09:14:41;;;;;;;3.70;1.52;;;;;;;44.10;13.55;99101.13;1732124;81;20926;-69
2022/06/25 09:17:14;;;;;;;2.52;1.32;;;;;;;43.56;13.70;99112.91;1732372;81;20855;-69
2022/06/25 09:19:48;;;;;;;6.15;1.40;;;;;;;43.74;14.08;99112.13;1757582;80;21125;-69
2022/06/25 09:22:20;;;;;;;1.45;1.32;;;;;;;44.50;13.53;99099.88;1767107;80;21063;-69
2022/06/25 09:24:57;;;;;;;6.00;1.57;;;;;;;45.13;12.97;99096.81;1776549;79;20979;-66
2022/06/25 09:27:35;;;;;;;2.05;1.30;;;;;;;45.11;13.51;99095.00;1761504;80;20901;-69
2022/06/25 09:30:16;;;;;;;1.95;1.30;;;;;;;43.81;14.06;99104.52;1761574;80;20929;-68
2022/06/25 09:32:59;;;;;;;1.60;1.50;;;;;;;43.02;14.57;99102.75;1761507;80;21873;-71
2022/06/25 09:35:37;;;;;;;2.37;1.17;;;;;;;42.33;15.51;99104.78;1760782;80;20925;-67
2022/06/25 09:38:09;;;;;;;2.33;1.62;;;;;;;42.17;15.84;99095.09;1766859;80;20899;-65
2022/06/25 09:40:37;;;;;;;2.85;1.72;;;;;;;42.01;15.77;99100.94;1792164;79;20879;-69
2022/06/25 09:43:13;;;;;;;2.12;1.85;;;;;;;40.42;17.03;99101.92;1788034;80;20976;-70
2022/06/25 09:45:39;;;;;;;3.98;1.62;;;;;;;39.73;17.72;99093.48;1761654;80;21253;-67
2022/06/25 09:48:10;;;;;;;6.97;1.72;;;;;;;40.10;18.01;99098.47;1762050;80;20961;-66
2022/06/25 09:50:37;;;;;;;1.77;1.50;;;;;;;40.87;17.53;99094.56;1762336;80;20964;-71
2022/06/25 09:53:04;;;;;;;2.98;1.55;;;;;;;42.10;16.25;99093.03;1763934;80;21011;-71
2022/06/25 09:55:33;;;;;;;3.92;1.55;;;;;;;42.53;15.44;99094.75;1792926;80;20839;-69
2022/06/25 09:58:01;;;;;;;2.20;1.30;;;;;;;41.54;16.22;99093.34;1771230;80;21293;-67
2022/06/25 10:00:27;;;;;;;1.70;1.42;;;;;;;41.05;16.48;99103.38;1771273;80;20915;-70
2022/06/25 10:02:56;;;;;;;3.05;1.98;;;;;;;39.97;17.43;99087.49;1792935;80;20969;-69
2022/06/25 10:05:38;;;;;;;3.00;1.35;;;;;;;38.59;18.92;99097.17;1785635;80;20901;-67
2022/06/25 10:08:11;;;;;;;2.37;1.40;;;;;;;37.90;19.40;99084.05;1760808;80;21012;-67
2022/06/25 10:10:45;;;;;;;1.52;1.42;;;;;;;37.20;20.25;99085.77;1772739;80;21778;-67
2022/06/25 10:13:13;;;;;;;3.15;1.60;;;;;;;36.59;20.83;99090.72;1782106;80;20940;-67
2022/06/25 10:15:39;;;;;;;5.03;1.52;;;;;;;36.00;21.55;99086.27;1784467;80;20917;-68
2022/06/25 10:18:09;;;;;;;1.98;1.35;;;;;;;35.59;21.88;99084.55;1759371;80;21055;-69
2022/06/25 10:20:39;;;;;;;2.35;1.75;;;;;;;35.09;22.65;99081.42;1740700;81;20971;-70
2022/06/25 10:23:07;;;;;;;5.47;1.95;;;;;;;34.52;23.51;99096.39;1751547;80;21124;-67
2022/06/25 10:25:34;;;;;;;3.67;1.40;;;;;;;34.09;23.84;99098.09;1732278;81;21226;-66
2022/06/25 10:28:11;;;;;;;2.33;1.15;;;;;;;33.66;24.19;99109.08;1732450;81;20991;-67
2022/06/25 10:30:47;;;;;;;1.62;1.30;;;;;;;33.17;24.71;99103.57;1737678;81;20970;-66
2022/06/25 10:33:16;;;;;;;1.87;1.32;;;;;;;32.75;24.97;99103.83;1761448;79;20956;-69
2022/06/25 10:35:42;;;;;;;2.87;1.27;;;;;;;32.28;24.95;99099.48;1758139;81;21386;-67
2022/06/25 10:38:21;;;;;;;4.17;1.80;;;;;;;31.84;25.56;99098.85;1764274;81;21394;-68
2022/06/25 10:42:58;;;;;;;2.00;1.22;;;;;;;31.55;25.80;99100.20;1732412;81;20899;-66
2022/06/25 10:43:47;;;;;;;2.30;1.42;;;;;;;31.44;26.45;99095.28;1762056;81;20935;-66
2022/06/25 10:46:29;;;;;;;1.50;1.40;;;;;;;31.37;27.45;99094.34;1744824;81;21005;-67
2022/06/25 10:49:12;;;;;;;3.33;1.40;;;;;;;31.05;26.71;99089.95;1754622;81;21137;-68
2022/06/25 10:51:50;;;;;;;2.20;1.50;;;;;;;30.72;27.68;99105.02;1732539;81;20986;-66
2022/06/25 10:54:28;;;;;;;2.45;1.40;;;;;;;30.43;27.72;99099.93;1731928;81;21520;-67
2022/06/25 10:56:58;;;;;;;1.40;1.30;;;;;;;30.14;27.64;99102.19;1732467;81;21567;-67
2022/06/25 10:59:48;;;;;;;2.60;1.30;;;;;;;29.88;27.49;99092.31;1732435;81;21033;-68
2022/06/25 11:02:18;;;;;;;2.10;1.30;;;;;;;29.69;28.73;99101.19;1739529;81;21152;-69
2022/06/25 11:04:51;;;;;;;1.37;1.27;;;;;;;29.55;28.55;99096.79;1732267;81;20962;-68
2022/06/25 11:07:24;;;;;;;1.85;1.12;;;;;;;29.51;27.83;99100.72;1751569;80;21413;-69
2022/06/25 11:10:01;;;;;;;2.35;1.30;;;;;;;29.47;27.97;99099.68;1732317;81;20974;-69
2022/06/25 11:12:29;;;;;;;1.50;1.30;;;;;;;29.41;28.41;99109.09;1751003;81;20990;-69
2022/06/25 11:15:03;;;;;;;4.42;1.22;;;;;;;29.30;28.52;99101.65;1732397;81;21087;-68
2022/06/25 11:17:30;;;;;;;3.47;1.50;;;;;;;29.23;29.51;99105.31;1764842;81;20841;-69
2022/06/25 11:20:09;;;;;;;1.70;1.47;;;;;;;29.15;28.50;99107.34;1763949;79;20934;-67
2022/06/25 11:22:46;;;;;;;2.00;1.50;;;;;;;29.03;28.85;99104.27;1775533;80;21018;-66
2022/06/25 11:30:43;;;;;;;1.75;1.17;;;;;;;28.94;28.36;99097.84;1783588;80;20935;-66
2022/06/25 11:33:10;;;;;;;3.12;1.30;;;;;;;29.02;28.71;99087.58;1765870;79;20883;-69
2022/06/25 11:35:41;;;;;;;2.58;1.65;;;;;;;29.10;28.49;99091.55;1769778;80;21047;-67
2022/06/25 11:38:18;;;;;;;3.20;1.27;;;;;;;29.08;28.68;99091.05;1763384;80;20955;-68
2022/06/25 11:40:45;;;;;;;1.45;1.35;;;;;;;29.09;28.61;99095.42;1768999;80;21241;-67
2022/06/25 11:43:13;;;;;;;3.90;1.60;;;;;;;29.04;29.59;99114.12;1756576;80;20882;-67
2022/06/25 11:45:49;;;;;;;2.12;1.30;;;;;;;28.90;29.57;99101.48;1756781;80;20889;-67
2022/06/25 11:48:15;;;;;;;1.65;1.30;;;;;;;28.76;28.23;99109.63;1756501;80;21029;-68
2022/06/25 11:50:42;;;;;;;2.62;1.30;;;;;;;28.68;28.34;99111.67;1756815;80;20933;-67
2022/06/25 11:53:09;;;;;;;4.85;1.35;;;;;;;28.73;29.03;99107.52;1781869;80;22140;-67
2022/06/25 11:55:39;;;;;;;1.67;1.45;;;;;;;28.73;29.59;99106.14;1774818;80;21459;-69
2022/06/25 11:58:06;;;;;;;2.27;1.52;;;;;;;28.71;28.45;99102.87;1778575;80;21461;-68
2022/06/25 12:00:32;;;;;;;2.52;1.40;;;;;;;28.69;27.93;99103.73;1756642;80;20898;-68